sensor_id;sensor_type;location;lat;lon;timestamp;pressure;altitude;pressure_sealevel;temperature;humidity
63339;BME280;47485;51.378;-1.342;2022-10-17T00:02:26;99490.67;;;12.50;43.49
63339;BME280;47485;51.378;-1.342;2022-10-17T00:04:53;99504.49;;;12.38;43.80
63339;BME280;47485;51.378;-1.342;2022-10-17T00:07:20;99495.46;;;13.68;42.17
63339;BME280;47485;51.378;-1.342;2022-10-17T00:09:46;99488.95;;;12.89;41.80
63339;BME280;47485;51.378;-1.342;2022-10-17T00:12:13;99487.37;;;13.59;41.09
63339;BME280;47485;51.378;-1.342;2022-10-17T00:14:40;99489.20;;;12.49;40.33
63339;BME280;47485;51.378;-1.342;2022-10-17T00:17:06;99485.45;;;11.15;41.35
63339;BME280;47485;51.378;-1.342;2022-10-17T00:19:33;99490.02;;;10.73;41.06
63339;BME280;47485;51.378;-1.342;2022-10-17T00:22:00;99496.61;;;9.72;43.24
63339;BME280;47485;51.378;-1.342;2022-10-17T00:24:29;99495.21;;;11.02;41.71
63339;BME280;47485;51.378;-1.342;2022-10-17T00:26:55;99501.53;;;13.13;39.99
63339;BME280;47485;51.378;-1.342;2022-10-17T00:29:22;99499.98;;;14.20;37.96
63339;BME280;47485;51.378;-1.342;2022-10-17T00:31:49;99500.60;;;12.55;38.28
63339;BME280;47485;51.378;-1.342;2022-10-17T00:34:19;99503.75;;;12.94;39.23
63339;BME280;47485;51.378;-1.342;2022-10-17T00:36:46;99501.15;;;14.19;38.33
63339;BME280;47485;51.378;-1.342;2022-10-17T00:39:12;99507.70;;;12.48;37.96
63339;BME280;47485;51.378;-1.342;2022-10-17T00:41:39;99509.82;;;13.72;37.77
63339;BME280;47485;51.378;-1.342;2022-10-17T00:44:58;99512.32;;;12.30;38.35
63339;BME280;47485;51.378;-1.342;2022-10-17T00:47:25;99520.08;;;13.18;38.08
63339;BME280;47485;51.378;-1.342;2022-10-17T00:49:53;99534.67;;;11.01;39.04
63339;BME280;47485;51.378;-1.342;2022-10-17T00:52:23;99537.86;;;12.78;38.63
63339;BME280;47485;51.378;-1.342;2022-10-17T00:54:55;99543.36;;;12.67;38.46
63339;BME280;47485;51.378;-1.342;2022-10-17T00:57:23;99543.28;;;13.72;35.98
63339;BME280;47485;51.378;-1.342;2022-10-17T00:59:53;99550.19;;;11.96;38.14
63339;BME280;47485;51.378;-1.342;2022-10-17T01:02:27;99552.53;;;12.24;38.44
63339;BME280;47485;51.378;-1.342;2022-10-17T01:04:55;99565.12;;;9.93;39.55
63339;BME280;47485;51.378;-1.342;2022-10-17T01:07:23;99554.29;;;12.37;37.39
63339;BME280;47485;51.378;-1.342;2022-10-17T01:09:50;99552.12;;;14.00;35.35
63339;BME280;47485;51.378;-1.342;2022-10-17T01:12:19;99553.55;;;12.73;36.97
63339;BME280;47485;51.378;-1.342;2022-10-17T01:14:58;99558.28;;;12.36;35.92
63339;BME280;47485;51.378;-1.342;2022-10-17T01:17:35;99561.00;;;11.77;37.29
63339;BME280;47485;51.378;-1.342;2022-10-17T01:20:27;99567.02;;;12.64;37.25
63339;BME280;47485;51.378;-1.342;2022-10-17T01:23:04;99571.54;;;13.83;35.87
63339;BME280;47485;51.378;-1.342;2022-10-17T01:25:49;99569.47;;;13.55;36.22
63339;BME280;47485;51.378;-1.342;2022-10-17T01:28:33;99569.84;;;13.67;35.91
63339;BME280;47485;51.378;-1.342;2022-10-17T01:31:12;99570.10;;;13.51;35.91
63339;BME280;47485;51.378;-1.342;2022-10-17T01:33:46;99579.09;;;12.88;38.10
63339;BME280;47485;51.378;-1.342;2022-10-17T01:36:26;99585.75;;;11.14;40.21
63339;BME280;47485;51.378;-1.342;2022-10-17T01:39:02;99589.88;;;12.29;39.92
63339;BME280;47485;51.378;-1.342;2022-10-17T01:41:39;99590.49;;;12.66;39.10
63339;BME280;47485;51.378;-1.342;2022-10-17T01:44:17;99587.08;;;12.64;38.22
63339;BME280;47485;51.378;-1.342;2022-10-17T01:46:48;99598.09;;;10.44;41.68
63339;BME280;47485;51.378;-1.342;2022-10-17T01:49:20;99591.71;;;12.08;41.33
63339;BME280;47485;51.378;-1.342;2022-10-17T01:51:52;99600.94;;;12.43;40.36
63339;BME280;47485;51.378;-1.342;2022-10-17T01:54:23;99601.66;;;14.39;39.99
63339;BME280;47485;51.378;-1.342;2022-10-17T01:56:57;99621.24;;;11.21;42.56
63339;BME280;47485;51.378;-1.342;2022-10-17T01:59:31;99614.24;;;9.46;44.66
63339;BME280;47485;51.378;-1.342;2022-10-17T02:02:01;99613.44;;;10.89;46.37
63339;BME280;47485;51.378;-1.342;2022-10-17T02:04:28;99623.89;;;9.45;45.34
63339;BME280;47485;51.378;-1.342;2022-10-17T02:06:55;99625.14;;;10.14;45.63
63339;BME280;47485;51.378;-1.342;2022-10-17T02:09:23;99627.55;;;9.71;46.69
63339;BME280;47485;51.378;-1.342;2022-10-17T02:12:01;99640.71;;;12.38;44.66
63339;BME280;47485;51.378;-1.342;2022-10-17T02:14:37;99634.31;;;11.25;47.36
63339;BME280;47485;51.378;-1.342;2022-10-17T02:17:15;99645.52;;;8.09;51.02
63339;BME280;47485;51.378;-1.342;2022-10-17T02:19:54;99638.27;;;9.48;48.63
63339;BME280;47485;51.378;-1.342;2022-10-17T02:22:29;99637.42;;;10.61;45.89
63339;BME280;47485;51.378;-1.342;2022-10-17T02:25:05;99635.72;;;9.79;47.93
63339;BME280;47485;51.378;-1.342;2022-10-17T02:27:41;99635.07;;;10.58;46.43
63339;BME280;47485;51.378;-1.342;2022-10-17T02:30:12;99635.35;;;8.31;49.37
63339;BME280;47485;51.378;-1.342;2022-10-17T02:32:45;99633.31;;;10.36;47.43
63339;BME280;47485;51.378;-1.342;2022-10-17T02:35:15;99631.03;;;8.85;47.37
63339;BME280;47485;51.378;-1.342;2022-10-17T02:37:44;99637.76;;;10.02;46.56
63339;BME280;47485;51.378;-1.342;2022-10-17T02:40:14;99630.28;;;9.45;48.61
63339;BME280;47485;51.378;-1.342;2022-10-17T02:42:43;99623.15;;;10.57;46.01
63339;BME280;47485;51.378;-1.342;2022-10-17T02:45:12;99629.30;;;9.02;45.28
63339;BME280;47485;51.378;-1.342;2022-10-17T02:47:49;99628.19;;;11.61;44.67
63339;BME280;47485;51.378;-1.342;2022-10-17T02:50:16;99628.84;;;10.07;45.02
63339;BME280;47485;51.378;-1.342;2022-10-17T02:52:47;99627.62;;;10.22;45.55
63339;BME280;47485;51.378;-1.342;2022-10-17T02:55:20;99624.22;;;12.69;41.88
63339;BME280;47485;51.378;-1.342;2022-10-17T02:57:51;99619.80;;;11.33;42.71
63339;BME280;47485;51.378;-1.342;2022-10-17T03:00:21;99612.47;;;13.46;40.83
63339;BME280;47485;51.378;-1.342;2022-10-17T03:02:50;99615.84;;;10.58;45.19
63339;BME280;47485;51.378;-1.342;2022-10-17T03:05:20;99618.44;;;12.33;42.85
63339;BME280;47485;51.378;-1.342;2022-10-17T03:07:53;99606.65;;;11.84;43.44
63339;BME280;47485;51.378;-1.342;2022-10-17T03:10:21;99603.83;;;11.83;41.45
63339;BME280;47485;51.378;-1.342;2022-10-17T03:12:48;99606.47;;;11.53;41.35
63339;BME280;47485;51.378;-1.342;2022-10-17T03:15:15;99600.95;;;11.66;42.22
63339;BME280;47485;51.378;-1.342;2022-10-17T03:17:42;99598.30;;;10.41;42.37
63339;BME280;47485;51.378;-1.342;2022-10-17T03:20:11;99598.75;;;9.58;42.78
63339;BME280;47485;51.378;-1.342;2022-10-17T03:22:38;99594.96;;;11.43;38.64
63339;BME280;47485;51.378;-1.342;2022-10-17T03:25:06;99597.74;;;12.77;38.51
63339;BME280;47485;51.378;-1.342;2022-10-17T03:27:32;99611.39;;;11.45;41.71
63339;BME280;47485;51.378;-1.342;2022-10-17T03:29:59;99610.75;;;11.01;41.22
63339;BME280;47485;51.378;-1.342;2022-10-17T03:32:26;99608.39;;;8.32;44.69
63339;BME280;47485;51.378;-1.342;2022-10-17T03:34:52;99608.60;;;10.49;41.74
63339;BME280;47485;51.378;-1.342;2022-10-17T03:37:19;99621.64;;;11.37;40.02
63339;BME280;47485;51.378;-1.342;2022-10-17T03:39:46;99621.61;;;13.00;38.81
63339;BME280;47485;51.378;-1.342;2022-10-17T03:42:12;99625.19;;;13.66;38.47
63339;BME280;47485;51.378;-1.342;2022-10-17T03:44:39;99621.59;;;13.73;38.43
63339;BME280;47485;51.378;-1.342;2022-10-17T03:47:06;99629.24;;;12.63;40.25
63339;BME280;47485;51.378;-1.342;2022-10-17T03:49:32;99633.09;;;10.67;41.28
63339;BME280;47485;51.378;-1.342;2022-10-17T03:51:59;99640.29;;;9.64;42.45
63339;BME280;47485;51.378;-1.342;2022-10-17T03:54:26;99633.71;;;14.41;37.62
63339;BME280;47485;51.378;-1.342;2022-10-17T03:56:53;99645.67;;;14.04;37.02
63339;BME280;47485;51.378;-1.342;2022-10-17T03:59:19;99654.09;;;11.07;40.10
63339;BME280;47485;51.378;-1.342;2022-10-17T04:01:46;99647.31;;;13.27;37.59
63339;BME280;47485;51.378;-1.342;2022-10-17T04:04:13;99652.16;;;12.39;38.63
63339;BME280;47485;51.378;-1.342;2022-10-17T04:06:39;99665.80;;;11.94;38.89
63339;BME280;47485;51.378;-1.342;2022-10-17T04:09:06;99668.55;;;11.34;42.08
63339;BME280;47485;51.378;-1.342;2022-10-17T04:11:33;99668.62;;;9.85;41.88
63339;BME280;47485;51.378;-1.342;2022-10-17T04:14:00;99659.59;;;12.61;40.19
63339;BME280;47485;51.378;-1.342;2022-10-17T04:16:27;99651.12;;;12.12;39.92
63339;BME280;47485;51.378;-1.342;2022-10-17T04:18:56;99652.02;;;11.93;40.81
63339;BME280;47485;51.378;-1.342;2022-10-17T04:21:26;99659.85;;;11.99;41.47
63339;BME280;47485;51.378;-1.342;2022-10-17T04:23:54;99664.69;;;11.40;40.52
63339;BME280;47485;51.378;-1.342;2022-10-17T04:26:21;99668.46;;;12.74;38.96
63339;BME280;47485;51.378;-1.342;2022-10-17T04:28:48;99681.05;;;13.47;39.48
63339;BME280;47485;51.378;-1.342;2022-10-17T04:31:16;99684.29;;;10.81;40.07
63339;BME280;47485;51.378;-1.342;2022-10-17T04:33:42;99690.20;;;9.86;42.44
63339;BME280;47485;51.378;-1.342;2022-10-17T04:36:13;99693.29;;;13.14;39.66
63339;BME280;47485;51.378;-1.342;2022-10-17T04:38:41;99693.32;;;14.10;38.01
63339;BME280;47485;51.378;-1.342;2022-10-17T04:41:11;99694.34;;;11.84;39.00
63339;BME280;47485;51.378;-1.342;2022-10-17T04:43:38;99696.60;;;12.14;39.41
63339;BME280;47485;51.378;-1.342;2022-10-17T04:46:08;99709.37;;;14.45;36.10
63339;BME280;47485;51.378;-1.342;2022-10-17T04:48:35;99721.04;;;12.93;38.13
63339;BME280;47485;51.378;-1.342;2022-10-17T04:51:06;99728.17;;;12.23;38.78
63339;BME280;47485;51.378;-1.342;2022-10-17T04:53:36;99726.98;;;11.48;39.45
63339;BME280;47485;51.378;-1.342;2022-10-17T04:56:07;99726.32;;;12.10;39.27
63339;BME280;47485;51.378;-1.342;2022-10-17T04:58:35;99720.63;;;12.72;38.27
63339;BME280;47485;51.378;-1.342;2022-10-17T05:01:04;99725.73;;;12.62;37.63
63339;BME280;47485;51.378;-1.342;2022-10-17T05:03:31;99727.71;;;13.14;36.73
63339;BME280;47485;51.378;-1.342;2022-10-17T05:06:03;99730.70;;;11.31;37.71
63339;BME280;47485;51.378;-1.342;2022-10-17T05:08:29;99734.12;;;13.41;36.32
63339;BME280;47485;51.378;-1.342;2022-10-17T05:10:56;99749.47;;;11.39;37.79
63339;BME280;47485;51.378;-1.342;2022-10-17T05:13:23;99743.59;;;12.74;36.25
63339;BME280;47485;51.378;-1.342;2022-10-17T05:15:49;99741.88;;;14.39;35.31
63339;BME280;47485;51.378;-1.342;2022-10-17T05:18:16;99756.86;;;13.55;37.31
63339;BME280;47485;51.378;-1.342;2022-10-17T05:20:43;99749.44;;;13.53;35.83
63339;BME280;47485;51.378;-1.342;2022-10-17T05:23:10;99756.28;;;12.87;37.09
63339;BME280;47485;51.378;-1.342;2022-10-17T05:25:37;99765.55;;;10.59;39.70
63339;BME280;47485;51.378;-1.342;2022-10-17T05:28:04;99779.06;;;12.42;37.79
63339;BME280;47485;51.378;-1.342;2022-10-17T05:30:31;99788.53;;;11.12;41.35
63339;BME280;47485;51.378;-1.342;2022-10-17T05:32:58;99788.66;;;11.48;39.26
63339;BME280;47485;51.378;-1.342;2022-10-17T05:35:24;99784.31;;;13.45;38.82
63339;BME280;47485;51.378;-1.342;2022-10-17T05:37:51;99787.19;;;10.29;40.23
63339;BME280;47485;51.378;-1.342;2022-10-17T05:40:18;99795.02;;;13.01;37.82
63339;BME280;47485;51.378;-1.342;2022-10-17T05:42:45;99800.55;;;11.21;39.12
63339;BME280;47485;51.378;-1.342;2022-10-17T05:45:12;99808.27;;;10.40;39.08
63339;BME280;47485;51.378;-1.342;2022-10-17T05:47:39;99809.91;;;13.53;37.58
63339;BME280;47485;51.378;-1.342;2022-10-17T05:50:07;99817.42;;;10.63;39.62
63339;BME280;47485;51.378;-1.342;2022-10-17T05:52:34;99826.70;;;11.36;39.98
63339;BME280;47485;51.378;-1.342;2022-10-17T05:55:01;99830.82;;;11.77;38.93
63339;BME280;47485;51.378;-1.342;2022-10-17T05:57:28;99834.17;;;12.27;38.22
63339;BME280;47485;51.378;-1.342;2022-10-17T05:59:54;99841.12;;;11.26;40.60
63339;BME280;47485;51.378;-1.342;2022-10-17T06:02:21;99840.15;;;11.37;41.49
63339;BME280;47485;51.378;-1.342;2022-10-17T06:04:48;99845.52;;;10.60;42.17
63339;BME280;47485;51.378;-1.342;2022-10-17T06:07:15;99845.32;;;8.60;43.78
63339;BME280;47485;51.378;-1.342;2022-10-17T06:09:42;99840.63;;;11.46;41.09
63339;BME280;47485;51.378;-1.342;2022-10-17T06:12:09;99851.65;;;9.31;44.18
63339;BME280;47485;51.378;-1.342;2022-10-17T06:14:36;99856.81;;;10.35;42.84
63339;BME280;47485;51.378;-1.342;2022-10-17T06:17:03;99859.47;;;10.64;41.90
63339;BME280;47485;51.378;-1.342;2022-10-17T06:19:30;99872.32;;;9.96;42.70
63339;BME280;47485;51.378;-1.342;2022-10-17T06:21:57;99871.21;;;13.13;40.32
63339;BME280;47485;51.378;-1.342;2022-10-17T06:24:24;99880.21;;;9.15;43.64
63339;BME280;47485;51.378;-1.342;2022-10-17T06:26:50;99883.29;;;10.52;42.06
63339;BME280;47485;51.378;-1.342;2022-10-17T06:29:17;99889.15;;;7.39;45.08
63339;BME280;47485;51.378;-1.342;2022-10-17T06:31:44;99889.35;;;11.37;41.11
63339;BME280;47485;51.378;-1.342;2022-10-17T06:34:10;99899.59;;;10.19;43.72
63339;BME280;47485;51.378;-1.342;2022-10-17T06:36:36;99904.16;;;11.01;43.45
63339;BME280;47485;51.378;-1.342;2022-10-17T06:39:04;99905.96;;;10.33;43.21
63339;BME280;47485;51.378;-1.342;2022-10-17T06:41:32;99906.46;;;10.06;42.03
63339;BME280;47485;51.378;-1.342;2022-10-17T06:43:58;99902.72;;;10.55;42.72
63339;BME280;47485;51.378;-1.342;2022-10-17T06:46:25;99913.82;;;12.06;40.39
63339;BME280;47485;51.378;-1.342;2022-10-17T06:48:52;99918.92;;;11.70;42.81
63339;BME280;47485;51.378;-1.342;2022-10-17T06:51:18;99918.45;;;11.40;42.30
63339;BME280;47485;51.378;-1.342;2022-10-17T06:53:45;99920.25;;;11.31;41.82
63339;BME280;47485;51.378;-1.342;2022-10-17T06:56:12;99933.59;;;9.95;41.27
63339;BME280;47485;51.378;-1.342;2022-10-17T06:58:39;99929.54;;;11.14;39.51
63339;BME280;47485;51.378;-1.342;2022-10-17T07:01:08;99933.24;;;10.81;41.00
63339;BME280;47485;51.378;-1.342;2022-10-17T07:03:36;99945.00;;;10.85;40.95
63339;BME280;47485;51.378;-1.342;2022-10-17T07:06:04;99949.15;;;11.89;39.32
63339;BME280;47485;51.378;-1.342;2022-10-17T07:08:31;99954.49;;;11.81;39.84
63339;BME280;47485;51.378;-1.342;2022-10-17T07:10:58;99959.78;;;10.90;40.63
63339;BME280;47485;51.378;-1.342;2022-10-17T07:13:25;99967.27;;;12.06;39.39
63339;BME280;47485;51.378;-1.342;2022-10-17T07:15:51;99977.93;;;12.98;39.26
63339;BME280;47485;51.378;-1.342;2022-10-17T07:18:18;99996.68;;;9.21;43.92
63339;BME280;47485;51.378;-1.342;2022-10-17T07:20:52;99998.91;;;8.94;42.64
63339;BME280;47485;51.378;-1.342;2022-10-17T07:23:18;99998.23;;;11.05;40.12
63339;BME280;47485;51.378;-1.342;2022-10-17T07:25:45;100010.12;;;10.38;41.16
63339;BME280;47485;51.378;-1.342;2022-10-17T07:28:13;100017.89;;;11.48;39.36
63339;BME280;47485;51.378;-1.342;2022-10-17T07:30:42;100030.91;;;9.93;41.55
63339;BME280;47485;51.378;-1.342;2022-10-17T07:33:09;100041.01;;;9.69;42.48
63339;BME280;47485;51.378;-1.342;2022-10-17T07:35:38;100044.82;;;11.66;37.84
63339;BME280;47485;51.378;-1.342;2022-10-17T07:38:05;100052.16;;;13.49;35.98
63339;BME280;47485;51.378;-1.342;2022-10-17T07:40:32;100054.99;;;11.82;36.88
63339;BME280;47485;51.378;-1.342;2022-10-17T07:42:59;100060.94;;;13.11;35.36
63339;BME280;47485;51.378;-1.342;2022-10-17T07:45:26;100065.53;;;12.15;37.20
63339;BME280;47485;51.378;-1.342;2022-10-17T07:47:54;100078.70;;;10.47;38.78
63339;BME280;47485;51.378;-1.342;2022-10-17T07:50:22;100083.75;;;12.86;35.88
63339;BME280;47485;51.378;-1.342;2022-10-17T07:52:48;100077.37;;;13.95;35.39
63339;BME280;47485;51.378;-1.342;2022-10-17T07:55:15;100081.71;;;13.16;36.39
63339;BME280;47485;51.378;-1.342;2022-10-17T07:57:42;100077.85;;;13.97;35.51
63339;BME280;47485;51.378;-1.342;2022-10-17T08:00:09;100081.30;;;14.01;35.74
63339;BME280;47485;51.378;-1.342;2022-10-17T08:02:36;100085.35;;;13.71;36.91
63339;BME280;47485;51.378;-1.342;2022-10-17T08:05:04;100090.52;;;11.24;39.04
63339;BME280;47485;51.378;-1.342;2022-10-17T08:07:31;100091.02;;;13.15;37.41
63339;BME280;47485;51.378;-1.342;2022-10-17T08:09:58;100097.74;;;12.12;38.32
63339;BME280;47485;51.378;-1.342;2022-10-17T08:12:25;100099.87;;;12.99;37.55
63339;BME280;47485;51.378;-1.342;2022-10-17T08:14:51;100106.81;;;12.39;38.21
63339;BME280;47485;51.378;-1.342;2022-10-17T08:17:19;100111.38;;;14.36;36.86
63339;BME280;47485;51.378;-1.342;2022-10-17T08:19:45;100119.24;;;11.40;37.20
63339;BME280;47485;51.378;-1.342;2022-10-17T08:22:12;100113.80;;;13.67;35.87
63339;BME280;47485;51.378;-1.342;2022-10-17T08:24:39;100116.68;;;12.57;36.93
63339;BME280;47485;51.378;-1.342;2022-10-17T08:27:05;100124.18;;;13.86;36.05
63339;BME280;47485;51.378;-1.342;2022-10-17T08:29:32;100131.00;;;13.28;36.98
63339;BME280;47485;51.378;-1.342;2022-10-17T08:31:59;100138.84;;;12.85;38.32
63339;BME280;47485;51.378;-1.342;2022-10-17T08:34:25;100138.96;;;13.33;37.73
63339;BME280;47485;51.378;-1.342;2022-10-17T08:36:52;100141.60;;;12.83;37.37
63339;BME280;47485;51.378;-1.342;2022-10-17T08:39:19;100148.21;;;13.89;37.87
63339;BME280;47485;51.378;-1.342;2022-10-17T08:41:54;100164.25;;;10.34;40.30
63339;BME280;47485;51.378;-1.342;2022-10-17T08:44:35;100159.44;;;12.13;37.74
63339;BME280;47485;51.378;-1.342;2022-10-17T08:47:11;100163.08;;;12.76;37.26
63339;BME280;47485;51.378;-1.342;2022-10-17T08:49:44;100178.53;;;11.33;38.92
63339;BME280;47485;51.378;-1.342;2022-10-17T08:52:21;100178.31;;;12.61;38.41
63339;BME280;47485;51.378;-1.342;2022-10-17T08:54:51;100178.44;;;11.51;39.94
63339;BME280;47485;51.378;-1.342;2022-10-17T08:57:18;100187.00;;;9.70;40.47
63339;BME280;47485;51.378;-1.342;2022-10-17T08:59:48;100196.91;;;12.59;38.75
63339;BME280;47485;51.378;-1.342;2022-10-17T09:02:30;100197.74;;;11.34;38.38
63339;BME280;47485;51.378;-1.342;2022-10-17T09:05:17;100198.93;;;11.86;37.72
63339;BME280;47485;51.378;-1.342;2022-10-17T09:07:53;100202.69;;;12.00;39.73
63339;BME280;47485;51.378;-1.342;2022-10-17T09:10:30;100203.25;;;11.93;39.42
63339;BME280;47485;51.378;-1.342;2022-10-17T09:13:09;100211.43;;;11.19;39.08
63339;BME280;47485;51.378;-1.342;2022-10-17T09:15:53;100212.58;;;11.09;39.87
63339;BME280;47485;51.378;-1.342;2022-10-17T09:18:26;100215.99;;;11.46;40.06
63339;BME280;47485;51.378;-1.342;2022-10-17T09:20:55;100219.98;;;12.35;39.23
63339;BME280;47485;51.378;-1.342;2022-10-17T09:23:32;100229.45;;;11.94;40.73
63339;BME280;47485;51.378;-1.342;2022-10-17T09:26:03;100236.71;;;12.21;40.10
63339;BME280;47485;51.378;-1.342;2022-10-17T09:28:32;100241.26;;;10.42;39.88
63339;BME280;47485;51.378;-1.342;2022-10-17T09:31:02;100252.96;;;12.02;39.97
63339;BME280;47485;51.378;-1.342;2022-10-17T09:33:32;100255.90;;;10.42;40.28
63339;BME280;47485;51.378;-1.342;2022-10-17T09:36:03;100262.49;;;11.59;41.54
63339;BME280;47485;51.378;-1.342;2022-10-17T09:38:37;100263.22;;;11.11;42.14
63339;BME280;47485;51.378;-1.342;2022-10-17T09:41:13;100265.88;;;11.49;43.03
63339;BME280;47485;51.378;-1.342;2022-10-17T09:43:41;100264.30;;;12.17;42.57
63339;BME280;47485;51.378;-1.342;2022-10-17T09:46:14;100269.66;;;8.00;44.12
63339;BME280;47485;51.378;-1.342;2022-10-17T09:48:45;100271.99;;;9.35;43.34
63339;BME280;47485;51.378;-1.342;2022-10-17T09:51:14;100271.74;;;13.24;38.58
63339;BME280;47485;51.378;-1.342;2022-10-17T09:53:45;100277.01;;;12.00;38.06
63339;BME280;47485;51.378;-1.342;2022-10-17T09:56:16;100288.56;;;12.52;38.94
63339;BME280;47485;51.378;-1.342;2022-10-17T09:58:44;100289.84;;;9.58;41.27
63339;BME280;47485;51.378;-1.342;2022-10-17T10:01:18;100289.98;;;11.01;38.62
63339;BME280;47485;51.378;-1.342;2022-10-17T10:03:46;100301.31;;;9.78;38.71
63339;BME280;47485;51.378;-1.342;2022-10-17T10:06:15;100310.62;;;12.08;38.15
63339;BME280;47485;51.378;-1.342;2022-10-17T10:08:48;100311.22;;;10.80;39.06
63339;BME280;47485;51.378;-1.342;2022-10-17T10:11:16;100319.63;;;10.41;40.02
63339;BME280;47485;51.378;-1.342;2022-10-17T10:13:46;100322.32;;;10.66;39.63
63339;BME280;47485;51.378;-1.342;2022-10-17T10:16:18;100327.68;;;8.58;39.40
63339;BME280;47485;51.378;-1.342;2022-10-17T10:18:47;100331.01;;;10.90;39.07
63339;BME280;47485;51.378;-1.342;2022-10-17T10:21:17;100355.62;;;10.04;39.83
63339;BME280;47485;51.378;-1.342;2022-10-17T10:24:02;100358.38;;;9.96;38.56
63339;BME280;47485;51.378;-1.342;2022-10-17T10:26:37;100364.97;;;10.12;40.16
63339;BME280;47485;51.378;-1.342;2022-10-17T10:29:17;100357.08;;;9.06;38.71
63339;BME280;47485;51.378;-1.342;2022-10-17T10:31:45;100365.00;;;7.41;40.05
63339;BME280;47485;51.378;-1.342;2022-10-17T10:34:17;100363.00;;;11.05;34.70
63339;BME280;47485;51.378;-1.342;2022-10-17T10:36:52;100369.45;;;12.00;35.19
63339;BME280;47485;51.378;-1.342;2022-10-17T10:39:34;100370.35;;;10.39;35.04
63339;BME280;47485;51.378;-1.342;2022-10-17T10:42:04;100376.81;;;11.51;33.82
63339;BME280;47485;51.378;-1.342;2022-10-17T10:44:32;100383.09;;;11.54;34.49
63339;BME280;47485;51.378;-1.342;2022-10-17T10:47:14;100381.90;;;12.28;33.28
63339;BME280;47485;51.378;-1.342;2022-10-17T10:49:42;100391.13;;;11.82;34.12
63339;BME280;47485;51.378;-1.342;2022-10-17T10:52:16;100398.55;;;10.87;34.99
63339;BME280;47485;51.378;-1.342;2022-10-17T10:54:53;100403.15;;;10.44;35.30
63339;BME280;47485;51.378;-1.342;2022-10-17T10:57:24;100420.97;;;9.88;36.87
63339;BME280;47485;51.378;-1.342;2022-10-17T11:00:02;100416.75;;;11.45;36.62
63339;BME280;47485;51.378;-1.342;2022-10-17T11:02:39;100410.94;;;11.01;36.26
63339;BME280;47485;51.378;-1.342;2022-10-17T11:05:13;100410.63;;;12.68;34.09
63339;BME280;47485;51.378;-1.342;2022-10-17T11:07:45;100412.85;;;12.98;34.01
63339;BME280;47485;51.378;-1.342;2022-10-17T11:10:20;100415.64;;;10.91;34.08
63339;BME280;47485;51.378;-1.342;2022-10-17T11:12:53;100420.37;;;10.09;34.70
63339;BME280;47485;51.378;-1.342;2022-10-17T11:15:26;100415.95;;;12.49;32.61
63339;BME280;47485;51.378;-1.342;2022-10-17T11:17:58;100423.12;;;12.69;31.85
63339;BME280;47485;51.378;-1.342;2022-10-17T11:20:33;100423.27;;;12.54;32.47
63339;BME280;47485;51.378;-1.342;2022-10-17T11:23:14;100428.15;;;10.96;33.72
63339;BME280;47485;51.378;-1.342;2022-10-17T11:25:42;100429.29;;;11.18;34.88
63339;BME280;47485;51.378;-1.342;2022-10-17T11:28:12;100428.25;;;11.66;34.45
63339;BME280;47485;51.378;-1.342;2022-10-17T11:30:45;100430.00;;;11.01;33.23
63339;BME280;47485;51.378;-1.342;2022-10-17T11:33:24;100433.83;;;13.30;33.11
63339;BME280;47485;51.378;-1.342;2022-10-17T11:35:57;100435.13;;;13.12;32.20
63339;BME280;47485;51.378;-1.342;2022-10-17T11:38:35;100438.20;;;11.99;33.12
63339;BME280;47485;51.378;-1.342;2022-10-17T11:41:05;100443.91;;;11.23;32.43
63339;BME280;47485;51.378;-1.342;2022-10-17T11:43:39;100450.23;;;11.19;32.16
63339;BME280;47485;51.378;-1.342;2022-10-17T11:46:12;100453.63;;;10.93;32.05
63339;BME280;47485;51.378;-1.342;2022-10-17T11:48:47;100457.20;;;10.44;33.76
63339;BME280;47485;51.378;-1.342;2022-10-17T11:51:21;100457.10;;;11.33;32.47
63339;BME280;47485;51.378;-1.342;2022-10-17T11:53:53;100462.56;;;11.02;32.85
63339;BME280;47485;51.378;-1.342;2022-10-17T11:56:28;100464.47;;;11.88;33.85
63339;BME280;47485;51.378;-1.342;2022-10-17T11:59:15;100472.58;;;11.90;34.41
63339;BME280;47485;51.378;-1.342;2022-10-17T12:01:53;100470.15;;;11.77;34.10
63339;BME280;47485;51.378;-1.342;2022-10-17T12:04:35;100470.56;;;11.44;33.42
63339;BME280;47485;51.378;-1.342;2022-10-17T12:07:10;100467.61;;;12.61;31.97
63339;BME280;47485;51.378;-1.342;2022-10-17T12:09:42;100460.12;;;11.79;32.25
63339;BME280;47485;51.378;-1.342;2022-10-17T12:12:23;100460.79;;;11.87;31.86
63339;BME280;47485;51.378;-1.342;2022-10-17T12:14:50;100463.09;;;11.17;30.95
63339;BME280;47485;51.378;-1.342;2022-10-17T12:17:26;100467.32;;;13.14;30.22
63339;BME280;47485;51.378;-1.342;2022-10-17T12:20:23;100475.50;;;12.37;32.85
63339;BME280;47485;51.378;-1.342;2022-10-17T12:22:53;100475.87;;;11.41;32.43
63339;BME280;47485;51.378;-1.342;2022-10-17T12:25:22;100470.22;;;13.17;30.97
63339;BME280;47485;51.378;-1.342;2022-10-17T12:27:50;100473.22;;;12.51;30.42
63339;BME280;47485;51.378;-1.342;2022-10-17T12:30:26;100477.90;;;11.84;31.83
63339;BME280;47485;51.378;-1.342;2022-10-17T12:32:56;100479.36;;;14.96;29.60
63339;BME280;47485;51.378;-1.342;2022-10-17T12:35:25;100476.91;;;14.22;30.02
63339;BME280;47485;51.378;-1.342;2022-10-17T12:38:17;100481.16;;;12.12;30.20
63339;BME280;47485;51.378;-1.342;2022-10-17T12:41:52;100486.88;;;12.54;28.99
63339;BME280;47485;51.378;-1.342;2022-10-17T12:44:34;100494.78;;;13.58;28.63
63339;BME280;47485;51.378;-1.342;2022-10-17T12:47:27;100496.46;;;14.59;27.83
63339;BME280;47485;51.378;-1.342;2022-10-17T12:50:00;100502.81;;;11.47;28.03
63339;BME280;47485;51.378;-1.342;2022-10-17T12:52:57;100506.21;;;14.79;27.81
63339;BME280;47485;51.378;-1.342;2022-10-17T12:55:28;100508.70;;;12.87;30.07
63339;BME280;47485;51.378;-1.342;2022-10-17T12:57:56;100513.65;;;14.02;29.08
63339;BME280;47485;51.378;-1.342;2022-10-17T13:00:31;100514.94;;;13.28;28.48
63339;BME280;47485;51.378;-1.342;2022-10-17T13:03:09;100517.62;;;15.61;27.35
63339;BME280;47485;51.378;-1.342;2022-10-17T13:05:40;100521.78;;;12.06;29.93
63339;BME280;47485;51.378;-1.342;2022-10-17T13:08:19;100524.81;;;14.75;28.70